Aviation Digital Data Service (ADDS)

Output produced by METARs form (2054 UTC 29 May 2017)
found at http://www.aviationweather.gov/adds/metars/
 
KSAC 291722Z 2918/3018 19010KT P6SM SKC 
     FM292300 21010G16KT P6SM SKC 
     FM300900 18009KT P6SM FEW250
       
KSAF 291726Z 2918/3018 17010KT P6SM FEW100 
     FM292200 17011KT P6SM VCSH BKN090 
     TEMPO 2922/3001 VRB23G35KT -SHRA 
     FM300300 12010KT P6SM SCT090 BKN130 
     FM300600 11008KT P6SM BKN160
       
KSAN 291728Z 2918/3024 28007KT P6SM BKN012 
     FM292100 28009KT P6SM SCT012 SCT200 
     FM300100 28008KT P6SM BKN010 
     FM300300 VRB04KT P6SM OVC010 
     FM301900 25009KT P6SM BKN011 
     FM302100 25009KT P6SM SCT014 SCT200
       
KSAT 291836Z 2919/3024 14013KT P6SM FEW019 SCT045 BKN250 
     FM300100 08004KT P6SM SCT050 
     FM300900 10006KT P6SM BKN018 
     FM301700 07005KT P6SM SCT020 BKN035
       
KSAV 291726Z 2918/3018 23008KT P6SM FEW060 SCT250 
     FM300000 20005KT P6SM FEW050 SCT150 
     FM301300 29007KT P6SM FEW035 SCT200
       
KSBA 291720Z 2918/3018 17010KT P6SM FEW010 SCT200 
     FM292000 24008KT P6SM SCT200 
     FM300300 VRB03KT P6SM SCT200 
     FM301000 VRB03KT P6SM OVC006 
     FM301700 VRB03KT P6SM OVC010
       
KSBD 291728Z 2918/3018 VRB05KT 5SM HZ SCT200 
     FM292200 24010KT P6SM SCT200 
     FM300300 VRB04KT P6SM SCT200 
     FM301600 VRB05KT 5SM HZ SCT200
       
KSBN 291722Z 2918/3018 25015G21KT P6SM FEW050 SCT250 
     FM300000 27009KT P6SM FEW200
       
KSBP 291720Z 2918/3018 31012KT P6SM SCT200 
     FM292000 31015G25KT P6SM SCT200 
     FM300200 32010KT P6SM SCT200 
     FM300500 31006KT P6SM OVC006 
     FM301600 VRB03KT P6SM FEW008
       
KSBY 291909Z 2919/3018 VRB04KT P6SM SCT025 
     TEMPO 2919/2921 BKN025 
     FM292100 10005KT P6SM SCT030 
     FM300000 08008KT P6SM BKN200 
     FM300600 11006KT P6SM BKN010 
     FM301100 11007KT 4SM BR BKN005
       
KSCK 291722Z 2918/3018 30010KT P6SM SKC 
     FM300100 29013G19KT P6SM SKC 
     FM300500 29010KT P6SM SKC
       
KSDF 291721Z 2918/3024 23007KT P6SM SCT070 
     FM300200 VRB03KT P6SM SCT060 
     FM301400 27010KT P6SM SCT080
       
KSDL 291720Z 2918/3018 16004KT P6SM SCT250 
     FM292100 23006KT P6SM BKN250 
     FM300300 VRB03KT P6SM BKN250
       
KSDY 291735Z 2918/3018 32017KT P6SM SCT060 
     FM300200 34008KT P6SM SKC 
     FM300600 33004KT P6SM SKC
       
KSEA 291739Z 2918/3024 26004KT P6SM OVC007 
     FM291900 26006KT P6SM SCT250 
     FM300000 29006KT P6SM SCT250 
     FM300500 23005KT P6SM SCT250 
     FM301000 19009KT P6SM OVC010
       
KSEZ 291725Z 2918/3018 VRB05KT P6SM SCT120
       
KSFB 291727Z 2918/3018 26005KT P6SM SCT050 
     FM292100 12009KT P6SM SCT060 
     FM300200 21004KT P6SM FEW060 SCT250 
     FM301400 27004KT P6SM SCT025
       
KSFF 291725Z 2918/3018 00000KT P6SM FEW070 
     FM300300 VRB02KT P6SM SKC
       
KSFO 291931Z 2920/3024 27017G23KT P6SM OVC009 
     FM292200 27020G26KT P6SM FEW009 SCT012 
     FM300300 27017KT P6SM BKN012 
     FM300600 27014KT P6SM OVC010 
     FM301200 27014KT P6SM OVC007 
     FM301900 28019G24KT P6SM SCT012
       
KSGF 291720Z 2918/3018 28010KT P6SM SCT250 
     FM300200 VRB03KT P6SM SKC 
     FM301400 22006KT P6SM SCT150
       
KSGJ 291832Z 2919/3018 13011G16KT P6SM SCT050 SCT250 
     FM300300 25006KT P6SM SCT250
       
KSGU 291720Z 2918/3018 VRB05KT P6SM FEW120
       
KSHR 291724Z 2918/3018 34012KT P6SM FEW100 
     FM300000 VRB04KT P6SM FEW200
       
KSHV 292053Z 2921/3018 28004KT P6SM OVC017 
     FM300100 VRB04KT P6SM BKN025 
     FM301200 VRB04KT 6SM BR BKN005 
     FM301400 VRB03KT P6SM BKN050
       
KSJC 291722Z 2918/3018 31009KT P6SM BKN015 
     FM291930 31011KT P6SM FEW020 
     FM300100 30015G20KT P6SM SCT015 
     FM300500 31006KT P6SM OVC015 
     FM300900 VRB03KT P6SM OVC012 
     FM301500 30006KT P6SM OVC015
       
KSJT 291720Z 2918/3018 08011KT P6SM SCT250
       
TAF KSKA 291902Z 2919/3101 06006KT 9999 SKC QNH2986INS 
     BECMG 3019/3020 16006KT 9999 FEW140 QNH2979INS TX29/2922Z TN15/3013Z
       
TAF AMD KSKF 291952Z 2919/3024 09009KT 8000 -SHRA BKN025 QNH2997INS 
     BECMG 2923/2924 07006KT 9999 NSW FEW020 QNH2997INS 
     BECMG 3005/3006 08006KT 6000 BR SCT005 QNH3004INS 
     TEMPO 3009/3015 3200 BR BKN005 
     BECMG 3017/3018 07006KT 9999 NSW SCT050 QNH2998INS TX28/2921Z TN20/3012Z
       
KSLC 291720Z 2918/3024 33008KT P6SM SKC 
     FM300400 15005KT P6SM SKC 
     FM301900 33008KT P6SM FEW090
       
KSLE 292009Z 2920/3018 VRB03KT P6SM OVC018 
     FM292200 30006KT P6SM FEW050 
     FM300700 30004KT P6SM OVC010
       
TAF KSLI 291302Z 2913/3019 VRB04KT 9999 BKN010 BKN250 QNH2987INS 
     BECMG 2917/2918 21006KT 9999 SCT010 SCT250 QNH2984INS 
     BECMG 3002/3003 30006KT 9999 SCT010 BKN250 QNH2985INS 
     BECMG 3011/3012 VRB04KT 4800 BR BKN007 BKN250 QNH2987INS 
     BECMG 3015/3016 VRB04KT 9999 NSW SCT007 BKN250 QNH2985INS TX23/2923Z TN13/3012Z
       
KSLK 291740Z 2918/3018 18010KT P6SM SCT015 OVC050 
     TEMPO 2918/2922 3SM -SHRA BR OVC015 
     FM300000 18006KT P6SM BKN030 
     FM300600 18005KT 3SM BR OVC015 
     FM301100 20007KT P6SM VCSH OVC025
       
KSLN 291720Z 2918/3018 35011KT P6SM SKC 
     FM300000 02005KT P6SM FEW250 
     FM300400 VRB03KT P6SM FEW250 
     FM301500 24007KT P6SM SCT200
       
KSME 291740Z 2918/3018 24005KT P6SM FEW050 SCT250 
     FM301400 VRB03KT P6SM SCT025
       
KSMF 291722Z 2918/3018 17008KT P6SM SKC 
     FM300100 17013KT P6SM SKC
       
KSMN 291720Z 2918/3018 VRB06KT P6SM FEW150 AMD LTD TO CLD VIS AND WIND
       
KSMO 291720Z 2918/3018 21006KT P6SM OVC009 
     FM291900 23010KT P6SM SCT200 
     FM300300 VRB03KT P6SM SCT200 
     FM300500 VRB03KT P6SM OVC008 
     FM301600 VRB03KT P6SM OVC010
       
KSMX 291720Z 2918/3018 30008KT P6SM BKN008 
     FM291900 30015G25KT P6SM SCT200 
     FM300200 31010KT P6SM BKN006 
     FM300500 29005KT 5SM BR OVC004 
     FM301500 VRB03KT P6SM OVC006 
     FM301700 30006KT P6SM SCT008
       
KSNA 291909Z 2919/3018 VRB05KT P6SM SCT020 
     FM292100 22009KT P6SM FEW015 SCT200 
     FM300200 20005KT P6SM SCT012 SCT200 
     FM300400 VRB04KT P6SM OVC010
       
KSNS 291722Z 2918/3018 28010KT P6SM BKN010 
     FM291930 27013KT P6SM SCT012 
     FM292100 26014G20KT P6SM SKC 
     FM300200 27011KT P6SM BKN015 
     FM300700 28010KT P6SM OVC008 
     FM301400 27009KT P6SM OVC006
       
KSNY 291721Z 2918/3018 34012G23KT P6SM SCT050 
     FM300000 33009KT P6SM SKC
       
KSPS 291720Z 2918/3018 03004KT P6SM FEW250 
     FM300000 16005KT P6SM FEW250 
     FM301500 20008KT P6SM SCT120
       
KSRQ 291720Z 2918/3018 28010KT P6SM SCT040 
     FM300200 VRB03KT P6SM FEW040 
     FM301500 24007KT P6SM FEW035 SCT250
       
KSSF 291836Z 2919/3018 16008KT P6SM FEW017 SCT070 
     FM300100 09003KT P6SM SCT050 
     FM300900 10005KT P6SM BKN018 
     FM301700 07005KT P6SM SCT020 BKN035
       
KSTC 291720Z 2918/3018 30015G20KT P6SM VCSH BKN035 
     FM300100 30008KT P6SM BKN050 
     FM301200 29010KT P6SM OVC025
       
KSTL 292038Z 2921/3024 26012G21KT P6SM VCTS BKN050CB 
     TEMPO 2921/2923 4SM -SHRA BKN030 
     FM300000 32009KT P6SM SCT100 
     FM300600 VRB04KT P6SM SKC 
     FM301500 24007KT P6SM SCT120 
     FM302100 27010KT P6SM SCT040 BKN080
       
KSTS 291722Z 2918/3018 VRB03KT P6SM BKN010 
     FM291900 16005KT P6SM SCT012 
     FM292200 15011KT P6SM FEW015 
     FM300600 VRB03KT P6SM BKN007 
     FM300800 00000KT P6SM OVC005 
     FM301600 20004KT P6SM OVC004
       
KSUA 291727Z 2918/3018 09010KT P6SM SCT040 
     FM300000 15007KT P6SM FEW040 
     FM300400 21003KT P6SM SCT250 
     FM301400 18004KT P6SM SCT025
       
KSUN 291720Z 2918/3018 13008KT P6SM SCT070 
     FM292100 12007KT P6SM VCTS SCT080CB BKN150 
     FM300400 32010KT P6SM SKC
       
KSUS 292039Z 2921/3018 26012G21KT P6SM VCTS BKN050CB 
     TEMPO 2921/2923 4SM -SHRA BKN030 
     FM300000 32009KT P6SM SCT100 
     FM300600 VRB03KT P6SM SKC 
     FM301500 24007KT P6SM SCT120
       
TAF KSUU 291859Z 2919/3101 24015G25KT 9999 SCT020 QNH2991INS 
     TEMPO 3004/3008 23025G35KT 520003 
     BECMG 3008/3009 22012G20KT 9999 SCT010 QNH2986INS 
     BECMG 3019/3020 22015KT 9999 SKC QNH2989INS 
     BECMG 3021/3022 22015G25KT 9999 SCT150 QNH2989INS TX23/2921Z TN12/3008Z
       
KSUX 291720Z 2918/3018 31019G29KT P6SM SCT045 
     FM291900 31019G28KT P6SM BKN050 
     FM300000 32014KT P6SM SCT150 
     FM300200 31007KT P6SM FEW250 
     FM301500 30012G18KT P6SM FEW200
       
KSWF 291942Z 2920/3024 15005KT P6SM SCT008 OVC020 
     TEMPO 2920/2922 BKN008 OVC020 
     FM300300 15003KT 5SM -DZ BR OVC006 
     FM301300 16005KT 5SM -DZ BR OVC008 
     FM301600 18007KT 6SM BR BKN015 AMD NOT SKED
       
KSYR 291727Z 2918/3018 19010KT P6SM SCT025 BKN035 
     TEMPO 2918/2920 3SM TSRA BR OVC025CB 
     FM292100 20008KT P6SM SCT040 
     FM300000 15005KT P6SM SCT060 
     FM300900 15007KT P6SM BKN035 
     FM301500 18010KT 4SM SHRA BR OVC025
       
TAF KSZL 291900Z 2919/3101 34012G20KT 9999 FEW080 QNH2992INS 
     BECMG 2923/2924 VRB06KT 9999 FEW090 QNH2994INS 
     BECMG 3016/3017 22012G20KT 9999 BKN080 QNH2996INS TX28/2921Z TN13/3012Z